createdAt,value
2019-02-20T00:00:42.803Z,360.63
2019-02-20T00:02:47.001Z,347.37
2019-02-20T00:04:51.173Z,337.63
2019-02-20T00:06:55.349Z,320.10
2019-02-20T00:08:59.960Z,306.57
2019-02-20T00:11:09.231Z,306.27
2019-02-20T00:13:16.440Z,293.47
2019-02-20T00:15:29.637Z,290.77
2019-02-20T00:17:33.978Z,275.10
2019-02-20T00:19:40.452Z,271.50
2019-02-20T00:21:44.627Z,265.87
2019-02-20T00:23:48.824Z,260.00
2019-02-20T00:25:54.177Z,252.23
2019-02-20T00:27:58.421Z,248.73
2019-02-20T00:30:02.708Z,243.90
2019-02-20T00:32:08.574Z,236.90
2019-02-20T00:34:16.676Z,233.20
2019-02-20T00:36:30.217Z,229.67
2019-02-20T00:38:34.354Z,222.17
2019-02-20T00:40:39.832Z,219.70
2019-02-20T00:42:47.212Z,213.00
2019-02-20T00:44:59.672Z,207.57
2019-02-20T00:47:24.220Z,208.80
2019-02-20T00:49:36.012Z,196.13
2019-02-20T00:52:01.034Z,199.63
2019-02-20T00:54:06.570Z,191.87
2019-02-20T00:56:10.840Z,193.30
2019-02-20T00:58:15.030Z,182.23
2019-02-20T01:00:19.244Z,182.60
2019-02-20T01:02:23.443Z,170.67
2019-02-20T01:04:27.663Z,171.50
2019-02-20T01:06:32.404Z,168.80
2019-02-20T01:08:36.592Z,158.30
2019-02-20T01:10:40.792Z,163.60
2019-02-20T01:12:45.947Z,159.00
2019-02-20T01:14:53.176Z,152.17
2019-02-20T01:16:58.152Z,152.17
2019-02-20T01:19:05.826Z,148.60
2019-02-20T01:21:10.043Z,143.20
2019-02-20T01:23:14.182Z,140.57
2019-02-20T01:25:19.017Z,134.70
2019-02-20T01:27:23.252Z,134.17
2019-02-20T01:29:27.436Z,130.10
2019-02-20T01:31:31.706Z,126.53
2019-02-20T01:33:35.847Z,124.33
2019-02-20T01:35:40.020Z,123.07
2019-02-20T01:37:44.207Z,118.03
2019-02-20T01:39:49.500Z,116.17
2019-02-20T01:44:01.422Z,113.33
2019-02-20T01:46:09.127Z,107.77
2019-02-20T01:48:13.458Z,106.40
2019-02-20T01:50:17.838Z,104.53
2019-02-20T01:52:22.085Z,100.27
2019-02-20T01:54:26.589Z,96.83
2019-02-20T01:56:30.750Z,97.43
2019-02-20T01:58:34.926Z,94.97
2019-02-20T02:00:39.117Z,89.93
2019-02-20T02:02:43.240Z,85.90
2019-02-20T02:04:47.425Z,87.90
2019-02-20T02:06:51.532Z,85.77
2019-02-20T02:08:56.560Z,84.10
2019-02-20T02:11:04.561Z,83.33
2019-02-20T02:13:09.061Z,82.10
2019-02-20T02:15:20.112Z,77.20
2019-02-20T02:17:19.564Z,76.70
2019-02-20T02:19:23.750Z,75.03
2019-02-20T02:21:27.920Z,73.00
2019-02-20T02:23:32.049Z,70.73
2019-02-20T02:25:36.192Z,67.33
2019-02-20T02:27:40.344Z,64.70
2019-02-20T02:29:44.466Z,65.37
2019-02-20T02:31:48.698Z,62.63
2019-02-20T02:33:52.818Z,62.30
2019-02-20T02:35:56.947Z,63.63
2019-02-20T02:38:01.734Z,59.73
2019-02-20T02:40:09.997Z,60.70
2019-02-20T02:42:18.169Z,58.47
2019-02-20T02:44:22.848Z,57.77
2019-02-20T02:46:27.060Z,56.30
2019-02-20T02:48:31.189Z,56.90
2019-02-20T02:50:35.456Z,55.63
2019-02-20T02:52:39.589Z,54.53
2019-02-20T02:54:43.714Z,55.13
2019-02-20T02:56:47.856Z,52.97
2019-02-20T02:58:51.991Z,54.80
2019-02-20T03:00:56.248Z,50.70
2019-02-20T03:03:00.576Z,51.87
2019-02-20T03:05:05.368Z,51.40
2019-02-20T03:07:10.603Z,48.87
2019-02-20T03:09:18.022Z,46.50
2019-02-20T03:11:22.104Z,48.27
2019-02-20T03:13:26.272Z,46.40
2019-02-20T03:15:30.458Z,45.90
2019-02-20T03:17:34.588Z,45.17
2019-02-20T03:19:39.050Z,45.00
2019-02-20T03:21:46.047Z,46.03
2019-02-20T03:23:52.012Z,43.80
2019-02-20T03:25:59.809Z,42.77
2019-02-20T03:28:03.953Z,45.13
2019-02-20T03:30:08.253Z,41.77
2019-02-20T03:32:12.401Z,40.00
2019-02-20T03:34:16.517Z,39.97
2019-02-20T03:38:30.380Z,38.87
2019-02-20T03:40:29.608Z,37.50
2019-02-20T03:42:33.736Z,36.30
2019-02-20T03:44:37.992Z,37.10
2019-02-20T03:46:42.126Z,36.47
2019-02-20T03:48:47.614Z,35.70
2019-02-20T03:50:51.842Z,34.83
2019-02-20T03:52:57.683Z,34.23
2019-02-20T03:55:08.170Z,34.40
2019-02-20T03:57:12.313Z,32.87
2019-02-20T03:59:16.451Z,33.90
2019-02-20T04:01:20.950Z,32.60
2019-02-20T04:03:28.986Z,32.90
2019-02-20T04:05:33.083Z,33.43
2019-02-20T04:07:39.514Z,31.60
2019-02-20T04:09:43.657Z,30.20
2019-02-20T04:11:47.790Z,31.57
2019-02-20T04:13:51.918Z,31.13
2019-02-20T04:15:56.083Z,28.97
2019-02-20T04:18:00.666Z,28.97
2019-02-20T04:20:05.601Z,27.67
2019-02-20T04:22:10.106Z,29.07
2019-02-20T04:24:14.214Z,26.97
2019-02-20T04:26:18.556Z,27.10
2019-02-20T04:28:23.365Z,25.00
2019-02-20T04:30:31.838Z,25.30
2019-02-20T04:32:36.643Z,25.67
2019-02-20T04:34:41.266Z,25.97
2019-02-20T04:36:45.812Z,24.40
2019-02-20T04:38:49.969Z,23.73
2019-02-20T04:40:54.354Z,22.83
2019-02-20T04:42:58.982Z,23.80
2019-02-20T04:45:03.135Z,24.63
2019-02-20T04:47:07.292Z,23.37
2019-02-20T04:49:11.856Z,24.00
2019-02-20T04:51:16.040Z,23.03
2019-02-20T04:53:20.221Z,20.00
2019-02-20T04:55:24.413Z,22.63
2019-02-20T04:57:29.644Z,20.67
2019-02-20T04:59:37.451Z,20.07
2019-02-20T05:01:42.216Z,21.20
2019-02-20T05:03:51.688Z,20.23
2019-02-20T05:05:55.929Z,19.63
2019-02-20T05:08:00.046Z,19.57
2019-02-20T05:10:05.193Z,20.13
2019-02-20T05:12:10.155Z,19.43
2019-02-20T05:14:14.317Z,18.87
2019-02-20T05:16:18.568Z,19.23
2019-02-20T05:18:22.980Z,17.67
2019-02-20T05:20:27.181Z,18.53
2019-02-20T05:22:31.316Z,18.30
2019-02-20T05:24:37.323Z,17.10
2019-02-20T05:26:45.602Z,18.50
2019-02-20T05:28:54.222Z,16.57
2019-02-20T05:30:58.566Z,17.50
2019-02-20T05:33:02.774Z,15.73
2019-02-20T05:35:08.031Z,17.27
2019-02-20T05:37:16.169Z,15.87
2019-02-20T05:41:24.753Z,15.00
2019-02-20T05:43:29.600Z,16.00
2019-02-20T05:45:35.159Z,14.80
2019-02-20T05:47:40.030Z,14.53
2019-02-20T05:49:48.396Z,13.60
2019-02-20T05:51:54.332Z,13.23
2019-02-20T05:54:01.273Z,14.20
2019-02-20T05:56:05.573Z,13.80
2019-02-20T05:58:10.908Z,13.10
2019-02-20T06:00:15.262Z,13.03
2019-02-20T06:02:19.606Z,12.97
2019-02-20T06:04:24.084Z,13.13
2019-02-20T06:06:28.253Z,13.87
2019-02-20T06:08:32.995Z,13.20
2019-02-20T06:10:37.189Z,12.40
2019-02-20T06:12:41.589Z,11.60
2019-02-20T06:14:45.935Z,11.90
2019-02-20T06:16:52.277Z,12.57
2019-02-20T06:19:10.973Z,11.67
2019-02-20T06:21:16.384Z,11.53
2019-02-20T06:23:20.950Z,10.80
2019-02-20T06:25:25.119Z,11.60
2019-02-20T06:27:30.001Z,11.57
2019-02-20T06:29:34.216Z,10.67
2019-02-20T06:31:38.486Z,11.23
2019-02-20T06:33:43.146Z,10.57
2019-02-20T06:35:47.349Z,10.30
2019-02-20T06:37:51.881Z,10.40
2019-02-20T06:39:56.111Z,10.10
2019-02-20T06:42:05.836Z,9.23
2019-02-20T06:44:15.608Z,9.60
2019-02-20T06:46:21.579Z,9.97
2019-02-20T06:48:27.405Z,9.63
2019-02-20T06:50:31.529Z,9.23
2019-02-20T06:52:36.429Z,10.10
2019-02-20T06:54:40.651Z,8.80
2019-02-20T06:56:45.214Z,9.10
2019-02-20T06:58:49.402Z,9.30
2019-02-20T07:00:53.606Z,9.20
2019-02-20T07:02:57.813Z,9.30
2019-02-20T07:05:29.926Z,9.67
2019-02-20T07:08:12.076Z,9.20
2019-02-20T07:10:57.406Z,9.43
2019-02-20T07:13:30.194Z,14.13
2019-02-20T07:16:00.677Z,14.03
2019-02-20T07:18:52.854Z,11.53
2019-02-20T07:21:26.962Z,10.10
2019-02-20T07:24:21.621Z,9.80
2019-02-20T07:26:52.563Z,9.50
2019-02-20T07:29:41.099Z,10.87
2019-02-20T07:31:45.292Z,22.97
2019-02-20T07:33:52.187Z,37.23
2019-02-20T07:35:59.302Z,87.63
2019-02-20T07:38:05.394Z,14.03
2019-02-20T07:40:11.768Z,63.80
2019-02-20T07:42:16.046Z,119.70
2019-02-20T07:44:20.304Z,76.03
2019-02-20T07:46:24.424Z,106.50
2019-02-20T07:48:32.080Z,93.87
2019-02-20T07:50:37.527Z,34.43
2019-02-20T07:52:44.169Z,24.77
2019-02-20T07:54:48.410Z,143.60
2019-02-20T07:56:52.569Z,30.97
2019-02-20T07:58:56.817Z,67.87
2019-02-20T08:01:01.687Z,40.07
2019-02-20T08:03:05.892Z,21.03
2019-02-20T08:05:10.049Z,14.40
2019-02-20T08:07:14.772Z,212.03
2019-02-20T08:09:18.923Z,20.07
2019-02-20T08:11:23.432Z,14.43
2019-02-20T08:13:28.163Z,13.90
2019-02-20T08:15:35.269Z,43.27
2019-02-20T08:17:43.348Z,15.93
2019-02-20T08:19:50.035Z,74.17
2019-02-20T08:21:54.265Z,19.77
2019-02-20T08:23:58.656Z,14.40
2019-02-20T08:26:03.476Z,12.77
2019-02-20T08:28:10.720Z,176.63
2019-02-20T08:30:16.028Z,46.90
2019-02-20T08:32:23.631Z,26.30
2019-02-20T08:34:34.124Z,16.27
2019-02-20T08:36:38.796Z,32.20
2019-02-20T08:38:43.472Z,18.27
2019-02-20T08:40:47.684Z,46.10
2019-02-20T08:42:51.923Z,19.60
2019-02-20T08:44:56.614Z,42.47
2019-02-20T08:47:01.026Z,62.93
2019-02-20T08:49:05.444Z,12.90
2019-02-20T08:51:09.785Z,14.73
2019-02-20T08:53:14.052Z,35.20
2019-02-20T08:55:18.902Z,19.47
2019-02-20T08:57:23.399Z,14.10
2019-02-20T08:59:28.608Z,19.00
2019-02-20T09:01:35.002Z,34.57
2019-02-20T09:03:42.532Z,133.80
2019-02-20T09:05:50.051Z,46.93
2019-02-20T09:07:54.487Z,26.20
2019-02-20T09:09:58.773Z,76.77
2019-02-20T09:12:03.105Z,71.20
2019-02-20T09:14:07.363Z,92.33
2019-02-20T09:16:11.550Z,24.30
2019-02-20T09:18:17.947Z,16.60
2019-02-20T09:20:24.514Z,14.33
2019-02-20T09:22:28.820Z,20.37
2019-02-20T09:24:33.013Z,123.17
2019-02-20T09:26:37.214Z,99.73
2019-02-20T09:28:41.491Z,189.17
2019-02-20T09:30:45.746Z,83.33
2019-02-20T09:32:49.940Z,567.20
2019-02-20T09:34:54.196Z,306.43
2019-02-20T09:36:58.416Z,60.93
2019-02-20T09:39:34.776Z,100.20
2019-02-20T09:41:39.537Z,70.90
2019-02-20T09:43:44.551Z,231.30
2019-02-20T09:45:50.797Z,62.50
2019-02-20T09:47:59.014Z,31.40
2019-02-20T09:50:08.945Z,20.73
2019-02-20T09:52:13.120Z,16.83
2019-02-20T09:54:17.508Z,14.70
2019-02-20T09:56:21.660Z,13.53
2019-02-20T09:58:30.416Z,50.17
2019-02-20T10:00:46.244Z,117.53
2019-02-20T10:02:50.906Z,136.67
2019-02-20T10:04:58.727Z,168.97
2019-02-20T10:07:05.897Z,79.20
2019-02-20T10:09:19.302Z,49.27
2019-02-20T10:11:28.538Z,27.20
2019-02-20T10:13:34.103Z,23.10
2019-02-20T10:15:38.869Z,133.90
2019-02-20T10:17:43.232Z,22.50
2019-02-20T10:19:47.490Z,23.70
2019-02-20T10:21:51.707Z,172.03
2019-02-20T10:23:55.985Z,35.30
2019-02-20T10:26:03.918Z,20.90
2019-02-20T10:28:10.069Z,29.93
2019-02-20T10:30:20.207Z,16.73
2019-02-20T10:32:24.952Z,33.13
2019-02-20T10:34:29.148Z,108.93
2019-02-20T10:36:35.764Z,30.37
2019-02-20T10:38:39.980Z,19.50
2019-02-20T10:40:48.631Z,62.07
2019-02-20T10:45:00.882Z,46.40
2019-02-20T10:47:05.112Z,131.33
2019-02-20T10:49:09.269Z,33.07
2019-02-20T10:51:13.701Z,50.97
2019-02-20T10:53:17.851Z,31.93
2019-02-20T10:55:22.363Z,129.57
2019-02-20T10:57:27.995Z,62.97
2019-02-20T10:59:32.927Z,151.97
2019-02-20T11:01:38.794Z,176.07
2019-02-20T11:03:46.673Z,48.27
2019-02-20T11:05:52.998Z,193.57
2019-02-20T11:08:00.631Z,239.73
2019-02-20T11:10:05.864Z,91.27
2019-02-20T11:12:10.171Z,49.33
2019-02-20T11:14:14.347Z,29.90
2019-02-20T11:16:18.852Z,17.63
2019-02-20T11:18:23.066Z,14.20
2019-02-20T11:20:27.661Z,12.87
2019-02-20T11:22:32.148Z,12.17
2019-02-20T11:24:36.457Z,10.30
2019-02-20T11:26:50.466Z,10.00
2019-02-20T11:28:51.977Z,10.73
2019-02-20T11:30:58.099Z,10.10
2019-02-20T11:33:05.609Z,10.30
2019-02-20T11:35:09.924Z,8.40
2019-02-20T11:37:14.092Z,9.00
2019-02-20T11:39:18.621Z,10.13
2019-02-20T11:41:22.833Z,9.30
2019-02-20T11:43:27.257Z,9.50
2019-02-20T11:45:31.545Z,8.83
2019-02-20T11:47:35.727Z,9.60
2019-02-20T11:49:40.061Z,9.53
2019-02-20T11:51:44.473Z,9.13
2019-02-20T11:53:51.195Z,8.93
2019-02-20T11:55:58.282Z,8.43
2019-02-20T11:58:11.900Z,8.80
2019-02-20T12:00:16.083Z,8.00
2019-02-20T12:02:20.569Z,9.77
2019-02-20T12:04:24.745Z,9.50
2019-02-20T12:06:29.257Z,8.80
2019-02-20T12:08:33.478Z,8.53
2019-02-20T12:10:36.733Z,9.37
2019-02-20T12:12:41.101Z,8.80
2019-02-20T12:14:45.499Z,8.87
2019-02-20T12:16:49.887Z,8.33
2019-02-20T12:18:56.702Z,9.50
2019-02-20T12:21:04.648Z,9.63
2019-02-20T12:23:13.769Z,10.10
2019-02-20T12:25:17.971Z,9.37
2019-02-20T12:27:22.202Z,8.47
2019-02-20T12:29:26.639Z,8.43
2019-02-20T12:31:30.826Z,9.33
2019-02-20T12:33:36.137Z,10.10
2019-02-20T12:35:40.303Z,10.00
2019-02-20T12:37:46.446Z,9.87
2019-02-20T12:39:51.033Z,10.20
2019-02-20T12:41:55.374Z,9.13
2019-02-20T12:44:02.698Z,9.03
2019-02-20T12:46:09.837Z,7.93
2019-02-20T12:48:16.059Z,9.77
2019-02-20T12:50:21.770Z,8.63
2019-02-20T12:52:27.991Z,9.50
2019-02-20T12:54:32.269Z,8.47
2019-02-20T12:56:43.746Z,8.60
2019-02-20T12:58:43.269Z,8.33
2019-02-20T13:00:47.620Z,8.13
2019-02-20T13:02:51.834Z,8.40
2019-02-20T13:04:57.342Z,9.37
2019-02-20T13:07:04.136Z,7.70
2019-02-20T13:09:13.815Z,9.13
2019-02-20T13:11:18.880Z,7.77
2019-02-20T13:13:23.104Z,8.40
2019-02-20T13:15:28.096Z,7.90
2019-02-20T13:17:32.599Z,8.80
2019-02-20T13:19:39.127Z,8.77
2019-02-20T13:21:47.891Z,8.40
2019-02-20T13:23:52.786Z,8.90
2019-02-20T13:25:57.172Z,9.53
2019-02-20T13:28:01.898Z,9.93
2019-02-20T13:30:06.499Z,9.30
2019-02-20T13:32:10.750Z,9.57
2019-02-20T13:34:14.981Z,8.20
2019-02-20T13:36:19.195Z,9.00
2019-02-20T13:38:24.023Z,8.97
2019-02-20T13:40:28.262Z,9.17
2019-02-20T13:42:32.446Z,9.30
2019-02-20T13:44:36.603Z,11.00
2019-02-20T13:46:41.832Z,8.83
2019-02-20T13:48:50.352Z,12.30
2019-02-20T13:51:05.499Z,10.03
2019-02-20T13:53:09.653Z,10.60
2019-02-20T13:55:13.844Z,11.67
2019-02-20T13:57:17.997Z,11.80
2019-02-20T13:59:22.213Z,12.07
2019-02-20T14:01:26.631Z,11.47
2019-02-20T14:03:30.833Z,12.27
2019-02-20T14:05:35.048Z,11.63
2019-02-20T14:07:39.579Z,12.00
2019-02-20T14:09:44.182Z,13.43
2019-02-20T14:11:50.559Z,11.73
2019-02-20T14:13:57.631Z,11.80
2019-02-20T14:16:02.453Z,11.37
2019-02-20T14:18:07.019Z,10.87
2019-02-20T14:20:16.564Z,10.13
2019-02-20T14:22:21.112Z,10.73
2019-02-20T14:24:25.488Z,10.00
2019-02-20T14:26:30.550Z,11.07
2019-02-20T14:28:35.194Z,11.13
2019-02-20T14:30:44.096Z,9.57
2019-02-20T14:32:48.368Z,9.50
2019-02-20T14:34:56.000Z,9.23
2019-02-20T14:37:05.304Z,9.37
2019-02-20T14:39:12.563Z,9.37
2019-02-20T14:41:16.838Z,8.97
2019-02-20T14:45:24.463Z,8.87
2019-02-20T14:47:28.658Z,8.33
2019-02-20T14:49:32.849Z,8.43
2019-02-20T14:51:37.436Z,8.33
2019-02-20T14:53:41.653Z,8.67
2019-02-20T14:55:45.863Z,8.70
2019-02-20T14:57:51.177Z,8.23
2019-02-20T14:59:57.403Z,7.90
2019-02-20T15:02:05.096Z,8.27
2019-02-20T15:04:11.522Z,7.10
2019-02-20T15:06:15.837Z,7.83
2019-02-20T15:08:20.352Z,8.33
2019-02-20T15:10:25.533Z,7.50
2019-02-20T15:12:29.681Z,7.57
2019-02-20T15:14:34.703Z,7.40
2019-02-20T15:16:39.075Z,7.13
2019-02-20T15:18:43.549Z,7.90
2019-02-20T15:20:49.215Z,7.80
2019-02-20T15:22:53.752Z,7.20
2019-02-20T15:24:58.306Z,7.67
2019-02-20T15:27:03.110Z,7.00
2019-02-20T15:29:07.581Z,6.43
2019-02-20T15:31:12.058Z,7.20
2019-02-20T15:33:16.419Z,7.20
2019-02-20T15:35:20.699Z,85.53
2019-02-20T15:37:35.125Z,14.30
2019-02-20T15:39:43.609Z,9.67
2019-02-20T15:41:48.185Z,9.07
2019-02-20T15:43:52.430Z,7.53
2019-02-20T15:45:56.668Z,6.97
2019-02-20T15:48:01.409Z,14.80
2019-02-20T15:50:08.654Z,45.73
2019-02-20T15:52:18.617Z,144.93
2019-02-20T15:54:28.607Z,27.07
2019-02-20T15:56:35.276Z,12.60
2019-02-20T15:58:41.046Z,105.10
2019-02-20T16:00:47.043Z,53.87
2019-02-20T16:02:51.356Z,128.80
2019-02-20T16:04:55.730Z,55.70
2019-02-20T16:06:59.957Z,33.53
2019-02-20T16:09:05.408Z,115.37
2019-02-20T16:11:10.995Z,46.67
2019-02-20T16:13:18.614Z,14.40
2019-02-20T16:15:30.598Z,12.43
2019-02-20T16:17:34.772Z,10.00
2019-02-20T16:19:38.932Z,9.57
2019-02-20T16:21:43.093Z,8.67
2019-02-20T16:23:47.396Z,7.03
2019-02-20T16:25:52.042Z,7.40
2019-02-20T16:27:56.700Z,6.50
2019-02-20T16:30:00.990Z,7.30
2019-02-20T16:32:05.260Z,5.97
2019-02-20T16:34:09.399Z,6.17
2019-02-20T16:36:14.561Z,5.93
2019-02-20T16:38:23.264Z,5.20
2019-02-20T16:40:30.838Z,5.50
2019-02-20T16:42:39.918Z,5.60
2019-02-20T16:44:45.610Z,5.00
2019-02-20T16:46:50.065Z,5.33
2019-02-20T16:48:55.046Z,5.27
2019-02-20T16:50:59.684Z,5.20
2019-02-20T16:53:05.777Z,5.47
2019-02-20T16:55:09.971Z,5.53
2019-02-20T16:57:14.507Z,5.27
2019-02-20T16:59:19.492Z,5.40
2019-02-20T17:01:26.813Z,5.50
2019-02-20T17:03:42.121Z,5.83
2019-02-20T17:05:48.517Z,4.37
2019-02-20T17:07:53.285Z,4.90
2019-02-20T17:09:57.609Z,4.90
2019-02-20T17:12:02.025Z,4.80
2019-02-20T17:14:07.903Z,4.90
2019-02-20T17:16:24.425Z,4.80
2019-02-20T17:18:34.996Z,3.53
2019-02-20T17:20:44.915Z,4.03
2019-02-20T17:22:52.735Z,4.17
2019-02-20T17:24:57.428Z,3.67
2019-02-20T17:27:01.586Z,4.30
2019-02-20T17:29:07.502Z,4.37
2019-02-20T17:31:14.629Z,4.00
2019-02-20T17:33:28.463Z,4.60
2019-02-20T17:35:36.347Z,4.57
2019-02-20T17:37:42.103Z,4.63
2019-02-20T17:39:50.005Z,4.33
2019-02-20T17:41:54.649Z,4.43
2019-02-20T17:43:58.833Z,4.13
2019-02-20T17:46:04.364Z,4.60
2019-02-20T17:48:09.002Z,4.10
2019-02-20T17:50:14.425Z,4.17
2019-02-20T17:52:18.637Z,4.83
2019-02-20T17:54:22.985Z,4.37
2019-02-20T17:56:27.267Z,4.00
2019-02-20T17:58:32.770Z,4.40
2019-02-20T18:00:40.829Z,3.97
2019-02-20T18:02:49.939Z,4.77
2019-02-20T18:04:55.258Z,4.17
2019-02-20T18:06:59.623Z,4.47
2019-02-20T18:09:05.622Z,4.50
2019-02-20T18:11:10.068Z,4.77
2019-02-20T18:13:14.455Z,4.20
2019-02-20T18:15:18.813Z,5.00
2019-02-20T18:17:26.898Z,4.13
2019-02-20T18:19:35.714Z,4.40
2019-02-20T18:21:45.115Z,4.60
2019-02-20T18:23:54.274Z,4.00
2019-02-20T18:25:58.494Z,4.43
2019-02-20T18:28:03.295Z,3.90
2019-02-20T18:30:09.283Z,5.00
2019-02-20T18:32:20.664Z,3.90
2019-02-20T18:34:26.773Z,4.57
2019-02-20T18:36:31.507Z,4.10
2019-02-20T18:38:36.059Z,4.60
2019-02-20T18:40:40.705Z,4.23
2019-02-20T18:42:44.882Z,4.50
2019-02-20T18:44:49.442Z,4.43
2019-02-20T18:46:53.763Z,4.40
2019-02-20T18:48:58.233Z,3.80
2019-02-20T18:51:02.515Z,4.10
2019-02-20T18:53:06.819Z,4.40
2019-02-20T18:55:11.694Z,4.70
2019-02-20T18:57:20.330Z,4.67
2019-02-20T18:59:29.573Z,4.10
2019-02-20T19:01:34.265Z,4.00
2019-02-20T19:03:38.643Z,3.87
2019-02-20T19:05:42.907Z,3.90
2019-02-20T19:07:47.396Z,3.97
2019-02-20T19:09:52.028Z,3.90
2019-02-20T19:12:49.696Z,4.27
2019-02-20T19:15:18.431Z,4.77
2019-02-20T19:17:41.907Z,4.43
2019-02-20T19:20:19.485Z,4.73
2019-02-20T19:23:00.941Z,3.60
2019-02-20T19:26:08.095Z,3.70
2019-02-20T19:28:23.047Z,3.30
2019-02-20T19:31:25.924Z,4.40
2019-02-20T19:34:25.961Z,3.83
2019-02-20T19:37:26.428Z,4.60
2019-02-20T19:39:47.938Z,3.47
2019-02-20T19:42:22.061Z,4.07
2019-02-20T19:44:42.155Z,3.43
2019-02-20T19:47:17.994Z,4.10
2019-02-20T19:50:12.223Z,4.13
2019-02-20T19:52:36.582Z,4.13
2019-02-20T19:55:03.231Z,3.73
2019-02-20T19:57:48.418Z,4.00
2019-02-20T20:00:45.173Z,4.53
2019-02-20T20:03:23.649Z,4.30
2019-02-20T20:06:12.764Z,3.77
2019-02-20T20:08:54.487Z,4.27
2019-02-20T20:11:24.316Z,4.47
2019-02-20T20:13:44.052Z,4.30
2019-02-20T20:18:19.169Z,4.50
2019-02-20T20:20:53.007Z,4.10
2019-02-20T20:23:53.468Z,4.90
2019-02-20T20:26:47.276Z,3.83
2019-02-20T20:29:27.136Z,4.03
2019-02-20T20:32:10.056Z,4.47
2019-02-20T20:34:40.296Z,4.40
2019-02-20T20:37:19.778Z,5.27
2019-02-20T20:39:52.882Z,4.23
2019-02-20T20:42:29.154Z,4.60
2019-02-20T20:44:59.027Z,4.30
2019-02-20T20:47:44.153Z,4.20
2019-02-20T20:50:15.850Z,4.53
2019-02-20T20:53:00.069Z,4.13
2019-02-20T20:55:37.727Z,5.13
2019-02-20T20:58:16.902Z,496.47
2019-02-20T21:00:53.785Z,39.03
2019-02-20T21:03:05.596Z,85.77
2019-02-20T21:05:56.724Z,916.27
2019-02-20T21:08:39.118Z,589.43
2019-02-20T21:11:16.283Z,282.37
2019-02-20T21:13:44.927Z,70.10
2019-02-20T21:16:38.940Z,30.60
2019-02-20T21:19:21.538Z,267.47
2019-02-20T21:21:34.423Z,450.10
2019-02-20T21:24:05.810Z,782.53
2019-02-20T21:26:43.698Z,551.27
2019-02-20T21:29:10.356Z,67.40
2019-02-20T21:32:03.004Z,23.87
2019-02-20T21:34:40.829Z,15.33
2019-02-20T21:37:38.491Z,603.07
2019-02-20T21:39:57.104Z,401.83
2019-02-20T21:42:51.229Z,222.53
2019-02-20T21:45:23.812Z,833.93
2019-02-20T21:48:06.852Z,489.97
2019-02-20T21:50:32.701Z,827.70
2019-02-20T21:53:06.291Z,811.20
2019-02-20T21:55:56.770Z,767.87
2019-02-20T21:58:22.313Z,848.37
2019-02-20T22:00:36.206Z,498.80
2019-02-20T22:03:13.158Z,262.63
2019-02-20T22:06:10.360Z,112.27
2019-02-20T22:08:50.589Z,266.83
2019-02-20T22:11:32.226Z,114.97
2019-02-20T22:14:03.533Z,28.23
2019-02-20T22:16:39.924Z,376.63
2019-02-20T22:18:54.139Z,288.50
2019-02-20T22:21:44.543Z,90.27
2019-02-20T22:24:10.904Z,25.07
2019-02-20T22:26:56.070Z,92.13
2019-02-20T22:29:49.889Z,25.30
2019-02-20T22:31:57.655Z,11.50
2019-02-20T22:34:47.545Z,10.83
2019-02-20T22:37:41.951Z,190.43
2019-02-20T22:40:26.434Z,333.73
2019-02-20T22:43:07.800Z,772.17
2019-02-20T22:46:00.873Z,546.37
2019-02-20T22:48:47.520Z,142.70
2019-02-20T22:51:39.034Z,127.37
2019-02-20T22:53:56.437Z,107.37
2019-02-20T22:56:52.417Z,159.53
2019-02-20T22:59:22.825Z,318.17
2019-02-20T23:02:23.935Z,167.57
2019-02-20T23:04:52.637Z,150.73
2019-02-20T23:07:27.545Z,32.93
2019-02-20T23:10:21.085Z,13.73
2019-02-20T23:12:58.634Z,12.60
2019-02-20T23:15:02.802Z,48.80
2019-02-20T23:17:07.745Z,169.23
2019-02-20T23:19:15.533Z,266.67
2019-02-20T23:21:20.153Z,208.23
2019-02-20T23:23:24.327Z,78.43
2019-02-20T23:25:28.557Z,394.67
2019-02-20T23:27:32.758Z,137.60
2019-02-20T23:29:36.953Z,30.00
2019-02-20T23:31:41.351Z,15.50
2019-02-20T23:33:48.160Z,12.20
2019-02-20T23:36:01.561Z,10.13
2019-02-20T23:38:05.792Z,9.43
2019-02-20T23:40:10.001Z,8.70
2019-02-20T23:42:14.118Z,20.10
2019-02-20T23:44:18.248Z,31.80
2019-02-20T23:46:22.391Z,18.10
2019-02-20T23:48:26.579Z,154.20
2019-02-20T23:50:30.728Z,23.50
2019-02-20T23:52:34.907Z,10.33
2019-02-20T23:54:39.057Z,9.60
2019-02-20T23:56:43.369Z,235.80
2019-02-20T23:58:50.657Z,54.50
